Time;durP1;ratioP1;P1;durP2;ratioP2;P2;SDS_P1;SDS_P2;PMS_P1;PMS_P2;Temp;Humidity;BMP_temperature;BMP_pressure;BME280_temperature;BME280_humidity;BME280_pressure;Samples;Min_cycle;Max_cycle;Signal;HPM_P1;HPM_P2
2022/07/30 00:00:00;;;;;;;0.9;0.7;;;;;;;20.7;100.0;101520;;;;
2022/07/30 00:01:00;;;;;;;0.2;0.2;;;;;;;20.8;100.0;101520;;;;
2022/07/30 00:02:00;;;;;;;0.2;0.2;;;;;;;20.8;100.0;101520;;;;
2022/07/30 00:03:00;;;;;;;0.2;0.2;;;;;;;20.7;100.0;101510;;;;
2022/07/30 00:04:00;;;;;;;0.2;0.2;;;;;;;20.7;100.0;101510;;;;
2022/07/30 00:05:00;;;;;;;0.2;0.2;;;;;;;20.7;100.0;101510;;;;
2022/07/30 00:06:00;;;;;;;0.2;0.2;;;;;;;20.7;100.0;101510;;;;
2022/07/30 00:07:03;;;;;;;0.2;0.2;;;;;;;20.6;100.0;101510;;;;
2022/07/30 00:08:00;;;;;;;0.2;0.2;;;;;;;20.6;100.0;101510;;;;
2022/07/30 00:09:00;;;;;;;0.2;0.2;;;;;;;20.7;100.0;101510;;;;
2022/07/30 00:10:00;;;;;;;0.2;0.2;;;;;;;20.7;100.0;101510;;;;
2022/07/30 00:11:00;;;;;;;0.2;0.2;;;;;;;20.7;100.0;101510;;;;
2022/07/30 00:12:01;;;;;;;0.2;0.2;;;;;;;20.7;100.0;101510;;;;
2022/07/30 00:13:00;;;;;;;0.2;0.2;;;;;;;20.6;100.0;101510;;;;
2022/07/30 00:14:00;;;;;;;0.2;0.2;;;;;;;20.6;100.0;101510;;;;
2022/07/30 00:15:00;;;;;;;0.2;0.2;;;;;;;20.6;100.0;101510;;;;
2022/07/30 00:16:00;;;;;;;0.2;0.2;;;;;;;20.6;100.0;101510;;;;
2022/07/30 00:17:01;;;;;;;0.2;0.2;;;;;;;20.5;100.0;101510;;;;
2022/07/30 00:18:00;;;;;;;0.2;0.2;;;;;;;20.5;100.0;101510;;;;
2022/07/30 00:19:01;;;;;;;0.2;0.2;;;;;;;20.5;100.0;101510;;;;
2022/07/30 00:20:00;;;;;;;0.2;0.2;;;;;;;20.5;100.0;101510;;;;
2022/07/30 00:21:01;;;;;;;0.2;0.2;;;;;;;20.6;100.0;101510;;;;
2022/07/30 00:22:00;;;;;;;0.2;0.2;;;;;;;20.6;100.0;101510;;;;
2022/07/30 00:23:02;;;;;;;0.2;0.2;;;;;;;20.6;100.0;101510;;;;
2022/07/30 00:24:02;;;;;;;0.2;0.2;;;;;;;20.6;100.0;101510;;;;
2022/07/30 00:25:00;;;;;;;0.2;0.2;;;;;;;20.5;100.0;101510;;;;
2022/07/30 00:26:00;;;;;;;0.2;0.2;;;;;;;20.5;100.0;101510;;;;
2022/07/30 00:27:00;;;;;;;0.2;0.2;;;;;;;20.5;100.0;101520;;;;
2022/07/30 00:28:00;;;;;;;0.2;0.2;;;;;;;20.5;100.0;101520;;;;
2022/07/30 00:29:00;;;;;;;0.2;0.2;;;;;;;20.4;100.0;101520;;;;
2022/07/30 00:30:01;;;;;;;0.2;0.2;;;;;;;20.4;100.0;101520;;;;
2022/07/30 00:31:00;;;;;;;0.2;0.2;;;;;;;20.4;100.0;101520;;;;
2022/07/30 00:32:00;;;;;;;0.2;0.2;;;;;;;20.4;100.0;101520;;;;
2022/07/30 00:33:00;;;;;;;0.2;0.2;;;;;;;20.4;100.0;101510;;;;
2022/07/30 00:34:00;;;;;;;0.2;0.2;;;;;;;20.4;100.0;101510;;;;
2022/07/30 00:35:00;;;;;;;0.2;0.2;;;;;;;20.3;100.0;101510;;;;
2022/07/30 00:36:00;;;;;;;0.2;0.2;;;;;;;20.3;100.0;101510;;;;
2022/07/30 00:37:00;;;;;;;0.2;0.2;;;;;;;20.2;100.0;101510;;;;
2022/07/30 00:38:00;;;;;;;0.2;0.2;;;;;;;20.2;100.0;101510;;;;
2022/07/30 00:39:00;;;;;;;0.2;0.2;;;;;;;20.3;100.0;101510;;;;
2022/07/30 00:40:00;;;;;;;0.2;0.2;;;;;;;20.3;100.0;101510;;;;
2022/07/30 00:41:00;;;;;;;0.3;0.3;;;;;;;20.4;100.0;101510;;;;
2022/07/30 00:42:01;;;;;;;0.3;0.3;;;;;;;20.4;100.0;101510;;;;
2022/07/30 00:43:00;;;;;;;0.3;0.3;;;;;;;20.4;100.0;101520;;;;
2022/07/30 00:44:00;;;;;;;0.3;0.3;;;;;;;20.4;100.0;101520;;;;
2022/07/30 00:45:00;;;;;;;0.3;0.3;;;;;;;20.3;100.0;101510;;;;
2022/07/30 00:46:00;;;;;;;0.3;0.3;;;;;;;20.3;100.0;101510;;;;
2022/07/30 00:47:00;;;;;;;0.3;0.3;;;;;;;20.1;100.0;101510;;;;
2022/07/30 00:48:00;;;;;;;0.3;0.3;;;;;;;20.1;100.0;101510;;;;
2022/07/30 00:49:00;;;;;;;0.3;0.3;;;;;;;20.2;100.0;101510;;;;
2022/07/30 00:50:03;;;;;;;0.3;0.3;;;;;;;20.2;100.0;101510;;;;
2022/07/30 00:51:00;;;;;;;0.3;0.3;;;;;;;20.2;100.0;101510;;;;
2022/07/30 00:52:00;;;;;;;0.3;0.3;;;;;;;20.2;100.0;101510;;;;
2022/07/30 00:53:00;;;;;;;0.3;0.3;;;;;;;20.2;100.0;101510;;;;
2022/07/30 00:54:00;;;;;;;0.3;0.3;;;;;;;20.2;100.0;101510;;;;
2022/07/30 00:55:00;;;;;;;0.3;0.3;;;;;;;20.2;100.0;101500;;;;
2022/07/30 00:56:00;;;;;;;0.3;0.3;;;;;;;20.2;100.0;101500;;;;
2022/07/30 00:57:00;;;;;;;0.3;0.3;;;;;;;20.1;100.0;101500;;;;
2022/07/30 00:58:00;;;;;;;0.3;0.3;;;;;;;20.1;100.0;101500;;;;
2022/07/30 00:59:00;;;;;;;0.3;0.3;;;;;;;20.1;100.0;101500;;;;
2022/07/30 01:00:00;;;;;;;0.3;0.3;;;;;;;20.1;100.0;101500;;;;
2022/07/30 01:01:00;;;;;;;0.3;0.3;;;;;;;20.1;100.0;101500;;;;
2022/07/30 01:02:02;;;;;;;0.3;0.3;;;;;;;20.1;100.0;101500;;;;
2022/07/30 01:03:00;;;;;;;0.3;0.3;;;;;;;20.1;100.0;101500;;;;
2022/07/30 01:04:00;;;;;;;0.3;0.3;;;;;;;20.1;100.0;101500;;;;
2022/07/30 01:05:00;;;;;;;0.3;0.3;;;;;;;20.0;100.0;101500;;;;
2022/07/30 01:06:00;;;;;;;0.3;0.3;;;;;;;20.0;100.0;101500;;;;
2022/07/30 01:07:00;;;;;;;0.3;0.3;;;;;;;20.0;100.0;101500;;;;
2022/07/30 01:08:00;;;;;;;0.3;0.3;;;;;;;20.0;100.0;101500;;;;
2022/07/30 01:09:00;;;;;;;0.3;0.3;;;;;;;20.0;100.0;101500;;;;
2022/07/30 01:10:00;;;;;;;0.3;0.3;;;;;;;20.0;100.0;101500;;;;
2022/07/30 01:11:00;;;;;;;0.3;0.3;;;;;;;20.0;100.0;101500;;;;
2022/07/30 01:12:01;;;;;;;0.3;0.3;;;;;;;20.0;100.0;101500;;;;
2022/07/30 01:13:00;;;;;;;0.3;0.3;;;;;;;20.0;100.0;101500;;;;
2022/07/30 01:14:00;;;;;;;0.3;0.3;;;;;;;20.0;100.0;101500;;;;
2022/07/30 01:15:01;;;;;;;0.3;0.3;;;;;;;19.9;100.0;101500;;;;
2022/07/30 01:16:00;;;;;;;0.3;0.3;;;;;;;19.9;100.0;101500;;;;
2022/07/30 01:17:01;;;;;;;0.3;0.3;;;;;;;19.9;100.0;101500;;;;
2022/07/30 01:18:02;;;;;;;0.3;0.3;;;;;;;19.9;100.0;101500;;;;
2022/07/30 01:20:08;;;;;;;0.3;0.3;;;;;;;19.8;100.0;101510;;;;
2022/07/30 01:21:04;;;;;;;0.2;0.2;;;;;;;19.9;100.0;101500;;;;
2022/07/30 01:22:06;;;;;;;0.2;0.2;;;;;;;19.9;100.0;101500;;;;
2022/07/30 01:23:10;;;;;;;0.2;0.2;;;;;;;19.8;100.0;101500;;;;
2022/07/30 01:24:07;;;;;;;0.2;0.2;;;;;;;19.8;100.0;101500;;;;
2022/07/30 01:25:03;;;;;;;0.2;0.2;;;;;;;19.8;100.0;101500;;;;
2022/07/30 01:26:03;;;;;;;0.2;0.2;;;;;;;19.8;100.0;101500;;;;
2022/07/30 01:27:01;;;;;;;0.2;0.2;;;;;;;19.7;100.0;101500;;;;
2022/07/30 01:28:00;;;;;;;0.2;0.2;;;;;;;19.7;100.0;101500;;;;
2022/07/30 01:29:00;;;;;;;0.2;0.2;;;;;;;19.7;100.0;101490;;;;
2022/07/30 01:30:01;;;;;;;0.2;0.2;;;;;;;19.7;100.0;101490;;;;
2022/07/30 01:31:01;;;;;;;0.2;0.2;;;;;;;19.8;100.0;101490;;;;
2022/07/30 01:32:01;;;;;;;0.2;0.2;;;;;;;19.8;100.0;101490;;;;
2022/07/30 01:33:02;;;;;;;0.2;0.2;;;;;;;19.7;100.0;101490;;;;
2022/07/30 01:34:01;;;;;;;0.2;0.2;;;;;;;19.7;100.0;101490;;;;
2022/07/30 01:35:01;;;;;;;0.2;0.2;;;;;;;19.7;100.0;101490;;;;
2022/07/30 01:36:00;;;;;;;0.2;0.2;;;;;;;19.7;100.0;101490;;;;
2022/07/30 01:37:01;;;;;;;0.2;0.2;;;;;;;19.7;100.0;101490;;;;
2022/07/30 01:38:02;;;;;;;0.2;0.2;;;;;;;19.7;100.0;101490;;;;
2022/07/30 01:39:00;;;;;;;0.2;0.2;;;;;;;19.6;100.0;101490;;;;
2022/07/30 01:40:00;;;;;;;0.2;0.2;;;;;;;19.6;100.0;101490;;;;
2022/07/30 01:41:00;;;;;;;0.8;0.8;;;;;;;19.6;100.0;101490;;;;
2022/07/30 01:42:04;;;;;;;0.8;0.8;;;;;;;19.6;100.0;101490;;;;
2022/07/30 01:43:01;;;;;;;0.8;0.8;;;;;;;19.6;100.0;101500;;;;
2022/07/30 01:44:01;;;;;;;0.8;0.8;;;;;;;19.6;100.0;101500;;;;
2022/07/30 01:45:01;;;;;;;0.8;0.8;;;;;;;19.6;100.0;101490;;;;
2022/07/30 01:46:01;;;;;;;0.8;0.8;;;;;;;19.6;100.0;101490;;;;
2022/07/30 01:47:01;;;;;;;0.8;0.8;;;;;;;19.4;100.0;101500;;;;
2022/07/30 01:48:01;;;;;;;0.8;0.8;;;;;;;19.4;100.0;101500;;;;
2022/07/30 01:49:01;;;;;;;0.8;0.8;;;;;;;19.5;100.0;101500;;;;
2022/07/30 01:50:01;;;;;;;0.8;0.8;;;;;;;19.5;100.0;101500;;;;
2022/07/30 01:51:02;;;;;;;0.8;0.8;;;;;;;19.5;100.0;101500;;;;
2022/07/30 01:52:01;;;;;;;0.8;0.8;;;;;;;19.5;100.0;101500;;;;
2022/07/30 01:53:00;;;;;;;0.8;0.8;;;;;;;19.5;100.0;101490;;;;
2022/07/30 01:54:00;;;;;;;0.8;0.8;;;;;;;19.5;100.0;101490;;;;
2022/07/30 01:55:01;;;;;;;0.8;0.8;;;;;;;19.5;100.0;101490;;;;
2022/07/30 01:56:00;;;;;;;0.8;0.8;;;;;;;19.5;100.0;101490;;;;
2022/07/30 01:57:01;;;;;;;0.8;0.8;;;;;;;19.4;100.0;101490;;;;
2022/07/30 01:58:01;;;;;;;0.8;0.8;;;;;;;19.4;100.0;101490;;;;
2022/07/30 01:59:01;;;;;;;0.8;0.8;;;;;;;19.4;100.0;101500;;;;
2022/07/30 02:00:02;;;;;;;0.8;0.8;;;;;;;19.4;100.0;101500;;;;
2022/07/30 02:01:00;;;;;;;0.6;0.6;;;;;;;19.4;100.0;101500;;;;
2022/07/30 02:02:00;;;;;;;0.6;0.6;;;;;;;19.4;100.0;101500;;;;
2022/07/30 02:03:00;;;;;;;0.6;0.6;;;;;;;19.4;100.0;101500;;;;
2022/07/30 02:04:01;;;;;;;0.6;0.6;;;;;;;19.4;100.0;101500;;;;
2022/07/30 02:05:00;;;;;;;0.6;0.6;;;;;;;19.4;100.0;101500;;;;
2022/07/30 02:06:06;;;;;;;0.6;0.6;;;;;;;19.4;100.0;101500;;;;
2022/07/30 02:07:03;;;;;;;0.6;0.6;;;;;;;19.2;100.0;101500;;;;
2022/07/30 02:08:05;;;;;;;0.6;0.6;;;;;;;19.2;100.0;101500;;;;
2022/07/30 02:09:11;;;;;;;0.6;0.6;;;;;;;19.3;100.0;101500;;;;
2022/07/30 02:10:03;;;;;;;0.6;0.6;;;;;;;19.3;100.0;101500;;;;
2022/07/30 02:11:09;;;;;;;0.6;0.6;;;;;;;19.2;100.0;101500;;;;
2022/07/30 02:13:02;;;;;;;0.6;0.6;;;;;;;19.2;100.0;101510;;;;
2022/07/30 02:14:01;;;;;;;0.6;0.6;;;;;;;19.2;100.0;101510;;;;
2022/07/30 02:15:08;;;;;;;0.6;0.6;;;;;;;19.2;100.0;101500;;;;
2022/07/30 02:16:11;;;;;;;0.6;0.6;;;;;;;19.2;100.0;101500;;;;
2022/07/30 02:17:01;;;;;;;0.6;0.6;;;;;;;19.2;100.0;101510;;;;
2022/07/30 02:18:05;;;;;;;0.6;0.6;;;;;;;19.2;100.0;101510;;;;
2022/07/30 02:19:06;;;;;;;0.6;0.6;;;;;;;19.1;100.0;101510;;;;
2022/07/30 02:20:01;;;;;;;0.6;0.6;;;;;;;19.1;100.0;101510;;;;
2022/07/30 02:21:07;;;;;;;0.5;0.5;;;;;;;19.2;100.0;101510;;;;
2022/07/30 02:22:04;;;;;;;0.5;0.5;;;;;;;19.2;100.0;101510;;;;
2022/07/30 02:23:04;;;;;;;0.5;0.5;;;;;;;19.1;100.0;101520;;;;
2022/07/30 02:24:01;;;;;;;0.5;0.5;;;;;;;19.1;100.0;101520;;;;
2022/07/30 02:25:01;;;;;;;0.5;0.5;;;;;;;19.1;100.0;101510;;;;
2022/07/30 02:26:00;;;;;;;0.5;0.5;;;;;;;19.1;100.0;101510;;;;
2022/07/30 02:27:02;;;;;;;0.5;0.5;;;;;;;19.1;100.0;101510;;;;
2022/07/30 02:28:04;;;;;;;0.5;0.5;;;;;;;19.1;100.0;101510;;;;
2022/07/30 02:29:01;;;;;;;0.5;0.5;;;;;;;19.0;100.0;101510;;;;
2022/07/30 02:30:01;;;;;;;0.5;0.5;;;;;;;19.0;100.0;101510;;;;
2022/07/30 02:31:00;;;;;;;0.5;0.5;;;;;;;19.0;100.0;101510;;;;
2022/07/30 02:32:04;;;;;;;0.5;0.5;;;;;;;19.0;100.0;101510;;;;
2022/07/30 02:33:02;;;;;;;0.5;0.5;;;;;;;18.9;100.0;101510;;;;
2022/07/30 02:34:02;;;;;;;0.5;0.5;;;;;;;18.9;100.0;101510;;;;
2022/07/30 02:35:04;;;;;;;0.5;0.5;;;;;;;19.0;100.0;101510;;;;
2022/07/30 02:36:01;;;;;;;0.5;0.5;;;;;;;19.0;100.0;101510;;;;
2022/07/30 02:37:01;;;;;;;0.5;0.5;;;;;;;18.9;100.0;101510;;;;
2022/07/30 02:38:01;;;;;;;0.5;0.5;;;;;;;18.9;100.0;101510;;;;
2022/07/30 02:39:01;;;;;;;0.5;0.5;;;;;;;18.9;100.0;101510;;;;
2022/07/30 02:40:00;;;;;;;0.5;0.5;;;;;;;18.9;100.0;101510;;;;
2022/07/30 02:41:00;;;;;;;0.2;0.2;;;;;;;18.8;100.0;101510;;;;
2022/07/30 02:42:01;;;;;;;0.2;0.2;;;;;;;18.8;100.0;101510;;;;
2022/07/30 02:43:00;;;;;;;0.2;0.2;;;;;;;18.9;100.0;101510;;;;
2022/07/30 02:44:00;;;;;;;0.2;0.2;;;;;;;18.9;100.0;101510;;;;
2022/07/30 02:45:00;;;;;;;0.2;0.2;;;;;;;18.9;100.0;101510;;;;
2022/07/30 02:46:00;;;;;;;0.2;0.2;;;;;;;18.9;100.0;101510;;;;
2022/07/30 02:47:05;;;;;;;0.2;0.2;;;;;;;18.6;100.0;101520;;;;
2022/07/30 02:48:01;;;;;;;0.2;0.2;;;;;;;18.6;100.0;101520;;;;
2022/07/30 02:49:01;;;;;;;0.2;0.2;;;;;;;18.7;100.0;101520;;;;
2022/07/30 02:50:01;;;;;;;0.2;0.2;;;;;;;18.7;100.0;101520;;;;
2022/07/30 02:51:02;;;;;;;0.2;0.2;;;;;;;18.7;100.0;101520;;;;
2022/07/30 02:52:02;;;;;;;0.2;0.2;;;;;;;18.7;100.0;101520;;;;
2022/07/30 02:53:01;;;;;;;0.2;0.2;;;;;;;18.7;100.0;101520;;;;
2022/07/30 02:54:02;;;;;;;0.2;0.2;;;;;;;18.7;100.0;101520;;;;
2022/07/30 02:55:01;;;;;;;0.2;0.2;;;;;;;18.6;100.0;101520;;;;
2022/07/30 02:56:01;;;;;;;0.2;0.2;;;;;;;18.6;100.0;101520;;;;
2022/07/30 02:57:01;;;;;;;0.2;0.2;;;;;;;18.7;100.0;101520;;;;
2022/07/30 02:58:01;;;;;;;0.2;0.2;;;;;;;18.7;100.0;101520;;;;
2022/07/30 02:59:00;;;;;;;0.2;0.2;;;;;;;18.6;100.0;101520;;;;
2022/07/30 03:00:01;;;;;;;0.2;0.2;;;;;;;18.6;100.0;101520;;;;
2022/07/30 03:01:03;;;;;;;0.2;0.2;;;;;;;18.6;100.0;101520;;;;
2022/07/30 03:02:02;;;;;;;0.2;0.2;;;;;;;18.6;100.0;101520;;;;
2022/07/30 03:03:02;;;;;;;0.2;0.2;;;;;;;18.6;100.0;101520;;;;
2022/07/30 03:04:01;;;;;;;0.2;0.2;;;;;;;18.6;100.0;101520;;;;
2022/07/30 03:05:01;;;;;;;0.2;0.2;;;;;;;18.6;100.0;101510;;;;
2022/07/30 03:06:01;;;;;;;0.2;0.2;;;;;;;18.6;100.0;101510;;;;
2022/07/30 03:07:08;;;;;;;0.2;0.2;;;;;;;18.6;100.0;101520;;;;
2022/07/30 03:08:00;;;;;;;0.2;0.2;;;;;;;18.6;100.0;101520;;;;
2022/07/30 03:09:01;;;;;;;0.2;0.2;;;;;;;18.6;100.0;101520;;;;
2022/07/30 03:10:00;;;;;;;0.2;0.2;;;;;;;18.6;100.0;101520;;;;
2022/07/30 03:11:02;;;;;;;0.2;0.2;;;;;;;18.5;100.0;101520;;;;
2022/07/30 03:12:00;;;;;;;0.2;0.2;;;;;;;18.5;100.0;101520;;;;
2022/07/30 03:13:01;;;;;;;0.2;0.2;;;;;;;18.5;100.0;101520;;;;
2022/07/30 03:14:00;;;;;;;0.2;0.2;;;;;;;18.5;100.0;101520;;;;
2022/07/30 03:15:00;;;;;;;0.2;0.2;;;;;;;18.4;100.0;101520;;;;
2022/07/30 03:16:01;;;;;;;0.2;0.2;;;;;;;18.4;100.0;101520;;;;
2022/07/30 03:17:02;;;;;;;0.2;0.2;;;;;;;18.4;100.0;101520;;;;
2022/07/30 03:18:01;;;;;;;0.2;0.2;;;;;;;18.4;100.0;101520;;;;
2022/07/30 03:19:01;;;;;;;0.2;0.2;;;;;;;18.4;100.0;101520;;;;
2022/07/30 03:20:02;;;;;;;0.2;0.2;;;;;;;18.4;100.0;101520;;;;
2022/07/30 03:21:00;;;;;;;11.3;1.4;;;;;;;18.4;100.0;101520;;;;
2022/07/30 03:22:01;;;;;;;11.3;1.4;;;;;;;18.4;100.0;101520;;;;
2022/07/30 03:23:01;;;;;;;11.3;1.4;;;;;;;18.4;100.0;101530;;;;
2022/07/30 03:24:02;;;;;;;11.3;1.4;;;;;;;18.4;100.0;101530;;;;
2022/07/30 03:25:01;;;;;;;11.3;1.4;;;;;;;18.2;100.0;101520;;;;
2022/07/30 03:26:01;;;;;;;11.3;1.4;;;;;;;18.2;100.0;101520;;;;
2022/07/30 03:27:02;;;;;;;11.3;1.4;;;;;;;18.2;100.0;101530;;;;
2022/07/30 03:28:02;;;;;;;11.3;1.4;;;;;;;18.2;100.0;101530;;;;
2022/07/30 03:29:01;;;;;;;11.3;1.4;;;;;;;18.2;100.0;101530;;;;
2022/07/30 03:30:01;;;;;;;11.3;1.4;;;;;;;18.2;100.0;101530;;;;
2022/07/30 03:31:00;;;;;;;11.3;1.4;;;;;;;18.3;100.0;101520;;;;
2022/07/30 03:32:01;;;;;;;11.3;1.4;;;;;;;18.3;100.0;101520;;;;
2022/07/30 03:33:00;;;;;;;11.3;1.4;;;;;;;18.2;100.0;101520;;;;
2022/07/30 03:34:00;;;;;;;11.3;1.4;;;;;;;18.2;100.0;101520;;;;
2022/07/30 03:35:06;;;;;;;11.3;1.4;;;;;;;18.2;100.0;101520;;;;
2022/07/30 03:36:00;;;;;;;11.3;1.4;;;;;;;18.2;100.0;101520;;;;
2022/07/30 03:37:03;;;;;;;11.3;1.4;;;;;;;18.2;100.0;101520;;;;
2022/07/30 03:38:00;;;;;;;11.3;1.4;;;;;;;18.2;100.0;101520;;;;
2022/07/30 03:39:01;;;;;;;11.3;1.4;;;;;;;18.2;100.0;101520;;;;
2022/07/30 03:40:00;;;;;;;11.3;1.4;;;;;;;18.2;100.0;101520;;;;
2022/07/30 03:41:00;;;;;;;0.8;0.8;;;;;;;18.0;100.0;101520;;;;
2022/07/30 03:42:01;;;;;;;0.8;0.8;;;;;;;18.0;100.0;101520;;;;
2022/07/30 03:43:00;;;;;;;0.8;0.8;;;;;;;18.0;100.0;101520;;;;
2022/07/30 03:44:00;;;;;;;0.8;0.8;;;;;;;18.0;100.0;101520;;;;
2022/07/30 03:45:01;;;;;;;0.8;0.8;;;;;;;18.1;100.0;101520;;;;
2022/07/30 03:46:02;;;;;;;0.8;0.8;;;;;;;18.1;100.0;101520;;;;
2022/07/30 03:47:01;;;;;;;0.8;0.8;;;;;;;18.1;100.0;101520;;;;
2022/07/30 03:48:00;;;;;;;0.8;0.8;;;;;;;18.1;100.0;101520;;;;
2022/07/30 03:49:00;;;;;;;0.8;0.8;;;;;;;17.9;100.0;101520;;;;
2022/07/30 03:50:00;;;;;;;0.8;0.8;;;;;;;17.9;100.0;101520;;;;
2022/07/30 03:51:02;;;;;;;0.8;0.8;;;;;;;17.9;100.0;101520;;;;
2022/07/30 03:52:00;;;;;;;0.8;0.8;;;;;;;17.9;100.0;101520;;;;
2022/07/30 03:53:01;;;;;;;0.8;0.8;;;;;;;17.9;100.0;101520;;;;
2022/07/30 03:54:00;;;;;;;0.8;0.8;;;;;;;17.9;100.0;101520;;;;
2022/07/30 03:55:03;;;;;;;0.8;0.8;;;;;;;17.7;100.0;101520;;;;
2022/07/30 03:56:01;;;;;;;0.8;0.8;;;;;;;17.7;100.0;101520;;;;
2022/07/30 03:57:01;;;;;;;0.8;0.8;;;;;;;17.6;100.0;101520;;;;
2022/07/30 03:58:00;;;;;;;0.8;0.8;;;;;;;17.6;100.0;101520;;;;
2022/07/30 03:59:00;;;;;;;0.8;0.8;;;;;;;17.7;100.0;101520;;;;
2022/07/30 04:00:00;;;;;;;0.8;0.8;;;;;;;17.7;100.0;101520;;;;
2022/07/30 04:01:00;;;;;;;0.4;0.4;;;;;;;17.8;100.0;101520;;;;
2022/07/30 04:02:07;;;;;;;0.4;0.4;;;;;;;17.8;100.0;101520;;;;
2022/07/30 04:03:00;;;;;;;0.4;0.4;;;;;;;17.8;100.0;101520;;;;
2022/07/30 04:04:08;;;;;;;0.4;0.4;;;;;;;17.8;100.0;101520;;;;
2022/07/30 04:05:00;;;;;;;0.4;0.4;;;;;;;17.9;100.0;101520;;;;
2022/07/30 04:06:00;;;;;;;0.4;0.4;;;;;;;17.9;100.0;101520;;;;
2022/07/30 04:07:01;;;;;;;0.4;0.4;;;;;;;17.9;100.0;101520;;;;
2022/07/30 04:08:00;;;;;;;0.4;0.4;;;;;;;17.9;100.0;101520;;;;
2022/07/30 04:09:00;;;;;;;0.4;0.4;;;;;;;17.7;100.0;101530;;;;
2022/07/30 04:10:00;;;;;;;0.4;0.4;;;;;;;17.7;100.0;101530;;;;
2022/07/30 04:11:00;;;;;;;0.4;0.4;;;;;;;17.7;100.0;101530;;;;
2022/07/30 04:12:00;;;;;;;0.4;0.4;;;;;;;17.7;100.0;101530;;;;
2022/07/30 04:13:00;;;;;;;0.4;0.4;;;;;;;17.7;100.0;101530;;;;
2022/07/30 04:14:00;;;;;;;0.4;0.4;;;;;;;17.7;100.0;101530;;;;
2022/07/30 04:15:00;;;;;;;0.4;0.4;;;;;;;17.6;100.0;101530;;;;
2022/07/30 04:16:13;;;;;;;0.4;0.4;;;;;;;17.6;100.0;101530;;;;
2022/07/30 04:17:03;;;;;;;0.4;0.4;;;;;;;17.8;100.0;101530;;;;
2022/07/30 04:18:01;;;;;;;0.4;0.4;;;;;;;17.8;100.0;101530;;;;
2022/07/30 04:19:02;;;;;;;0.4;0.4;;;;;;;17.5;100.0;101540;;;;
2022/07/30 04:20:01;;;;;;;0.4;0.4;;;;;;;17.5;100.0;101540;;;;
2022/07/30 04:21:03;;;;;;;0.2;0.2;;;;;;;17.7;100.0;101540;;;;
2022/07/30 04:22:00;;;;;;;0.2;0.2;;;;;;;17.7;100.0;101540;;;;
2022/07/30 04:23:00;;;;;;;0.2;0.2;;;;;;;17.6;100.0;101550;;;;
2022/07/30 04:24:05;;;;;;;0.2;0.2;;;;;;;17.6;100.0;101550;;;;
2022/07/30 04:25:01;;;;;;;0.2;0.2;;;;;;;17.5;100.0;101550;;;;
2022/07/30 04:26:00;;;;;;;0.2;0.2;;;;;;;17.5;100.0;101550;;;;
2022/07/30 04:27:01;;;;;;;0.2;0.2;;;;;;;17.6;100.0;101550;;;;
2022/07/30 04:28:03;;;;;;;0.2;0.2;;;;;;;17.6;100.0;101550;;;;
2022/07/30 04:29:04;;;;;;;0.2;0.2;;;;;;;17.4;100.0;101560;;;;
2022/07/30 04:30:00;;;;;;;0.2;0.2;;;;;;;17.4;100.0;101560;;;;
2022/07/30 04:31:00;;;;;;;0.2;0.2;;;;;;;17.5;100.0;101550;;;;
2022/07/30 04:32:00;;;;;;;0.2;0.2;;;;;;;17.5;100.0;101550;;;;
2022/07/30 04:33:01;;;;;;;0.2;0.2;;;;;;;17.5;100.0;101560;;;;
2022/07/30 04:34:05;;;;;;;0.2;0.2;;;;;;;17.5;100.0;101560;;;;
2022/07/30 04:35:01;;;;;;;0.2;0.2;;;;;;;17.6;100.0;101560;;;;
2022/07/30 04:36:04;;;;;;;0.2;0.2;;;;;;;17.6;100.0;101560;;;;
2022/07/30 04:37:00;;;;;;;0.2;0.2;;;;;;;17.6;100.0;101560;;;;
2022/07/30 04:38:02;;;;;;;0.2;0.2;;;;;;;17.6;100.0;101560;;;;
2022/07/30 04:39:00;;;;;;;0.2;0.2;;;;;;;17.5;100.0;101560;;;;
2022/07/30 04:40:00;;;;;;;0.2;0.2;;;;;;;17.5;100.0;101560;;;;
2022/07/30 04:41:00;;;;;;;0.4;0.4;;;;;;;17.5;100.0;101560;;;;
2022/07/30 04:42:00;;;;;;;0.4;0.4;;;;;;;17.5;100.0;101560;;;;
2022/07/30 04:43:00;;;;;;;0.4;0.4;;;;;;;17.6;100.0;101560;;;;
2022/07/30 04:44:00;;;;;;;0.4;0.4;;;;;;;17.6;100.0;101560;;;;
2022/07/30 04:45:00;;;;;;;0.4;0.4;;;;;;;17.5;100.0;101560;;;;
2022/07/30 04:46:00;;;;;;;0.4;0.4;;;;;;;17.5;100.0;101560;;;;
2022/07/30 04:47:00;;;;;;;0.4;0.4;;;;;;;17.6;100.0;101570;;;;
2022/07/30 04:48:00;;;;;;;0.4;0.4;;;;;;;17.6;100.0;101570;;;;
2022/07/30 04:49:00;;;;;;;0.4;0.4;;;;;;;17.5;100.0;101570;;;;
2022/07/30 04:50:01;;;;;;;0.4;0.4;;;;;;;17.5;100.0;101570;;;;
2022/07/30 04:51:04;;;;;;;0.4;0.4;;;;;;;17.5;100.0;101570;;;;
2022/07/30 04:52:01;;;;;;;0.4;0.4;;;;;;;17.5;100.0;101570;;;;
2022/07/30 04:53:01;;;;;;;0.4;0.4;;;;;;;17.5;100.0;101570;;;;
2022/07/30 04:54:02;;;;;;;0.4;0.4;;;;;;;17.5;100.0;101570;;;;
2022/07/30 04:55:02;;;;;;;0.4;0.4;;;;;;;17.6;100.0;101570;;;;
2022/07/30 04:56:01;;;;;;;0.4;0.4;;;;;;;17.6;100.0;101570;;;;
2022/07/30 04:57:00;;;;;;;0.4;0.4;;;;;;;17.6;100.0;101580;;;;
2022/07/30 04:58:02;;;;;;;0.4;0.4;;;;;;;17.6;100.0;101580;;;;
2022/07/30 04:59:00;;;;;;;0.4;0.4;;;;;;;17.5;100.0;101580;;;;
2022/07/30 05:00:00;;;;;;;1.6;1.2;;;;;;;17.5;100.0;101580;;;;
2022/07/30 05:01:01;;;;;;;1.6;1.2;;;;;;;17.6;100.0;101580;;;;
2022/07/30 05:02:00;;;;;;;1.6;1.2;;;;;;;17.6;100.0;101580;;;;
2022/07/30 05:03:01;;;;;;;1.6;1.2;;;;;;;17.4;100.0;101590;;;;
2022/07/30 05:04:00;;;;;;;1.6;1.2;;;;;;;17.4;100.0;101590;;;;
2022/07/30 05:05:00;;;;;;;1.6;1.2;;;;;;;17.4;100.0;101580;;;;
2022/07/30 05:06:01;;;;;;;1.6;1.2;;;;;;;17.4;100.0;101580;;;;
2022/07/30 05:07:01;;;;;;;1.6;1.2;;;;;;;17.5;100.0;101580;;;;
2022/07/30 05:08:00;;;;;;;1.6;1.2;;;;;;;17.5;100.0;101580;;;;
2022/07/30 05:09:00;;;;;;;1.6;1.2;;;;;;;17.6;100.0;101580;;;;
2022/07/30 05:10:00;;;;;;;1.6;1.2;;;;;;;17.6;100.0;101580;;;;
2022/07/30 05:11:00;;;;;;;1.6;1.2;;;;;;;17.6;100.0;101590;;;;
2022/07/30 05:12:01;;;;;;;1.6;1.2;;;;;;;17.6;100.0;101590;;;;
2022/07/30 05:13:00;;;;;;;1.6;1.2;;;;;;;17.5;100.0;101590;;;;
2022/07/30 05:14:00;;;;;;;1.6;1.2;;;;;;;17.5;100.0;101590;;;;
2022/07/30 05:15:00;;;;;;;1.6;1.2;;;;;;;17.6;100.0;101600;;;;
2022/07/30 05:16:00;;;;;;;1.6;1.2;;;;;;;17.6;100.0;101600;;;;
2022/07/30 05:17:00;;;;;;;1.6;1.2;;;;;;;17.5;100.0;101600;;;;
2022/07/30 05:18:00;;;;;;;1.6;1.2;;;;;;;17.5;100.0;101600;;;;
2022/07/30 05:19:00;;;;;;;1.6;1.2;;;;;;;17.6;100.0;101600;;;;
2022/07/30 05:20:02;;;;;;;0.8;0.8;;;;;;;17.6;100.0;101600;;;;
2022/07/30 05:21:00;;;;;;;0.8;0.8;;;;;;;17.6;100.0;101600;;;;
2022/07/30 05:22:06;;;;;;;0.8;0.8;;;;;;;17.6;100.0;101600;;;;
2022/07/30 05:23:00;;;;;;;0.8;0.8;;;;;;;17.6;100.0;101600;;;;
2022/07/30 05:24:00;;;;;;;0.8;0.8;;;;;;;17.6;100.0;101600;;;;
2022/07/30 05:25:00;;;;;;;0.8;0.8;;;;;;;17.5;100.0;101600;;;;
2022/07/30 05:26:00;;;;;;;0.8;0.8;;;;;;;17.5;100.0;101600;;;;
2022/07/30 05:27:00;;;;;;;0.8;0.8;;;;;;;17.5;100.0;101610;;;;
2022/07/30 05:28:00;;;;;;;0.8;0.8;;;;;;;17.5;100.0;101610;;;;
2022/07/30 05:29:02;;;;;;;0.8;0.8;;;;;;;17.5;100.0;101610;;;;
2022/07/30 05:30:00;;;;;;;0.8;0.8;;;;;;;17.5;100.0;101610;;;;
2022/07/30 05:31:01;;;;;;;0.8;0.8;;;;;;;17.6;100.0;101610;;;;
2022/07/30 05:32:03;;;;;;;0.8;0.8;;;;;;;17.6;100.0;101610;;;;
2022/07/30 05:33:03;;;;;;;0.8;0.8;;;;;;;17.6;100.0;101600;;;;
2022/07/30 05:34:03;;;;;;;0.8;0.8;;;;;;;17.6;100.0;101600;;;;
2022/07/30 05:35:00;;;;;;;0.8;0.8;;;;;;;17.6;100.0;101600;;;;
2022/07/30 05:36:00;;;;;;;0.8;0.8;;;;;;;17.6;100.0;101600;;;;
2022/07/30 05:37:00;;;;;;;0.8;0.8;;;;;;;17.7;100.0;101600;;;;
2022/07/30 05:38:00;;;;;;;0.8;0.8;;;;;;;17.7;100.0;101600;;;;
2022/07/30 05:39:00;;;;;;;0.8;0.8;;;;;;;17.6;100.0;101600;;;;
2022/07/30 05:40:03;;;;;;;0.3;0.3;;;;;;;17.6;100.0;101600;;;;
2022/07/30 05:41:00;;;;;;;0.3;0.3;;;;;;;17.9;100.0;101600;;;;
2022/07/30 05:42:00;;;;;;;0.3;0.3;;;;;;;17.9;100.0;101600;;;;
2022/07/30 05:43:00;;;;;;;0.3;0.3;;;;;;;17.8;100.0;101600;;;;
2022/07/30 05:44:00;;;;;;;0.3;0.3;;;;;;;17.8;100.0;101600;;;;
2022/07/30 05:45:00;;;;;;;0.3;0.3;;;;;;;17.8;100.0;101600;;;;
2022/07/30 05:46:00;;;;;;;0.3;0.3;;;;;;;17.8;100.0;101600;;;;
2022/07/30 05:47:00;;;;;;;0.3;0.3;;;;;;;17.9;100.0;101600;;;;
2022/07/30 05:48:00;;;;;;;0.3;0.3;;;;;;;17.9;100.0;101600;;;;
2022/07/30 05:49:00;;;;;;;0.3;0.3;;;;;;;17.9;100.0;101600;;;;
2022/07/30 05:50:05;;;;;;;0.3;0.3;;;;;;;17.9;100.0;101600;;;;
2022/07/30 05:51:00;;;;;;;0.3;0.3;;;;;;;17.9;100.0;101600;;;;
2022/07/30 05:52:01;;;;;;;0.3;0.3;;;;;;;17.9;100.0;101600;;;;
2022/07/30 05:53:00;;;;;;;0.3;0.3;;;;;;;18.1;100.0;101610;;;;
2022/07/30 05:54:00;;;;;;;0.3;0.3;;;;;;;18.1;100.0;101610;;;;
2022/07/30 05:55:00;;;;;;;0.3;0.3;;;;;;;18.0;100.0;101610;;;;
2022/07/30 05:56:00;;;;;;;0.3;0.3;;;;;;;18.0;100.0;101610;;;;
2022/07/30 05:57:00;;;;;;;0.3;0.3;;;;;;;18.0;100.0;101610;;;;
2022/07/30 05:58:00;;;;;;;0.3;0.3;;;;;;;18.0;100.0;101610;;;;
2022/07/30 05:59:00;;;;;;;0.3;0.3;;;;;;;18.1;100.0;101610;;;;
2022/07/30 06:00:00;;;;;;;0.8;0.8;;;;;;;18.1;100.0;101610;;;;
2022/07/30 06:01:00;;;;;;;0.8;0.8;;;;;;;18.2;100.0;101610;;;;
2022/07/30 06:02:01;;;;;;;0.8;0.8;;;;;;;18.2;100.0;101610;;;;
2022/07/30 06:03:00;;;;;;;0.8;0.8;;;;;;;18.2;100.0;101610;;;;
2022/07/30 06:04:00;;;;;;;0.8;0.8;;;;;;;18.2;100.0;101610;;;;
2022/07/30 06:05:00;;;;;;;0.8;0.8;;;;;;;18.2;100.0;101610;;;;
2022/07/30 06:06:02;;;;;;;0.8;0.8;;;;;;;18.2;100.0;101610;;;;
2022/07/30 06:07:00;;;;;;;0.8;0.8;;;;;;;18.3;100.0;101620;;;;
2022/07/30 06:08:00;;;;;;;0.8;0.8;;;;;;;18.3;100.0;101620;;;;
2022/07/30 06:09:00;;;;;;;0.8;0.8;;;;;;;18.4;100.0;101610;;;;
2022/07/30 06:10:00;;;;;;;0.8;0.8;;;;;;;18.4;100.0;101610;;;;
2022/07/30 06:11:00;;;;;;;0.8;0.8;;;;;;;18.5;100.0;101610;;;;
2022/07/30 06:12:00;;;;;;;0.8;0.8;;;;;;;18.5;100.0;101610;;;;
2022/07/30 06:13:00;;;;;;;0.8;0.8;;;;;;;18.5;100.0;101620;;;;
2022/07/30 06:14:00;;;;;;;0.8;0.8;;;;;;;18.5;100.0;101620;;;;
2022/07/30 06:15:00;;;;;;;0.8;0.8;;;;;;;18.5;100.0;101620;;;;
2022/07/30 06:16:00;;;;;;;0.8;0.8;;;;;;;18.5;100.0;101620;;;;
2022/07/30 06:17:00;;;;;;;0.8;0.8;;;;;;;18.7;100.0;101630;;;;
2022/07/30 06:18:02;;;;;;;0.8;0.8;;;;;;;18.7;100.0;101630;;;;
2022/07/30 06:19:00;;;;;;;0.8;0.8;;;;;;;18.7;100.0;101630;;;;
2022/07/30 06:20:00;;;;;;;0.2;0.2;;;;;;;18.7;100.0;101630;;;;
2022/07/30 06:21:00;;;;;;;0.2;0.2;;;;;;;18.6;100.0;101630;;;;
2022/07/30 06:22:06;;;;;;;0.2;0.2;;;;;;;18.6;100.0;101630;;;;
2022/07/30 06:23:00;;;;;;;0.2;0.2;;;;;;;18.7;100.0;101630;;;;
2022/07/30 06:24:00;;;;;;;0.2;0.2;;;;;;;18.7;100.0;101630;;;;